createdAt,value
2023-04-07T00:00:22.835Z,23.48
2023-04-07T00:01:22.913Z,23.49
2023-04-07T00:02:23.087Z,23.45
2023-04-07T00:03:23.177Z,23.50
2023-04-07T00:04:23.225Z,23.48
2023-04-07T00:05:23.222Z,23.44
2023-04-07T00:06:23.285Z,23.46
2023-04-07T00:07:23.363Z,23.48
2023-04-07T00:08:23.453Z,23.49
2023-04-07T00:09:23.523Z,23.47
2023-04-07T00:10:23.670Z,23.44
2023-04-07T00:11:23.614Z,23.43
2023-04-07T00:12:23.653Z,23.47
2023-04-07T00:13:23.637Z,23.49
2023-04-07T00:14:23.652Z,23.47
2023-04-07T00:15:23.746Z,23.49
2023-04-07T00:16:23.727Z,23.44
2023-04-07T00:17:23.730Z,23.50
2023-04-07T00:18:23.714Z,23.48
2023-04-07T00:19:23.752Z,23.49
2023-04-07T00:20:23.860Z,23.41
2023-04-07T00:21:23.923Z,23.47
2023-04-07T00:22:24.019Z,23.38
2023-04-07T00:23:24.069Z,23.43
2023-04-07T00:24:33.968Z,23.42
2023-04-07T00:25:25.168Z,23.46
2023-04-07T00:26:24.173Z,23.48
2023-04-07T00:27:24.191Z,23.43
2023-04-07T00:28:24.209Z,23.48
2023-04-07T00:29:24.213Z,23.47
2023-04-07T00:30:24.231Z,23.52
2023-04-07T00:31:24.232Z,23.49
2023-04-07T00:32:24.283Z,23.49
2023-04-07T00:33:24.284Z,23.50
2023-04-07T00:34:24.374Z,23.49
2023-04-07T00:35:24.458Z,23.50
2023-04-07T00:36:24.511Z,23.43
2023-04-07T00:37:24.600Z,23.49
2023-04-07T00:38:24.682Z,23.52
2023-04-07T00:39:24.761Z,23.46
2023-04-07T00:40:24.844Z,23.52
2023-04-07T00:41:24.950Z,23.48
2023-04-07T00:42:24.968Z,23.46
2023-04-07T00:43:25.033Z,23.46
2023-04-07T00:44:25.130Z,23.47
2023-04-07T00:45:25.211Z,23.52
2023-04-07T00:46:25.429Z,23.47
2023-04-07T00:47:25.382Z,23.52
2023-04-07T00:48:25.431Z,23.54
2023-04-07T00:49:25.506Z,23.55
2023-04-07T00:50:25.592Z,23.54
2023-04-07T00:51:25.660Z,23.54
2023-04-07T00:52:25.748Z,23.49
2023-04-07T00:53:25.816Z,23.54
2023-04-07T00:54:25.893Z,23.53
2023-04-07T00:55:25.962Z,23.55
2023-04-07T00:56:26.043Z,23.55
2023-04-07T00:57:26.129Z,23.51
2023-04-07T00:58:26.216Z,23.53
2023-04-07T00:59:26.288Z,23.55
2023-04-07T01:00:26.368Z,23.54
2023-04-07T01:01:26.568Z,23.50
2023-04-07T01:02:26.755Z,23.53
2023-04-07T01:03:26.917Z,23.53
2023-04-07T01:04:26.897Z,23.51
2023-04-07T01:05:26.775Z,23.46
2023-04-07T01:06:26.853Z,23.48
2023-04-07T01:07:26.936Z,23.56
2023-04-07T01:08:27.021Z,23.58
2023-04-07T01:09:27.089Z,23.55
2023-04-07T01:10:27.198Z,23.56
2023-04-07T01:11:27.277Z,23.59
2023-04-07T01:12:27.333Z,23.55
2023-04-07T01:13:27.395Z,23.54
2023-04-07T01:14:27.485Z,23.58
2023-04-07T01:15:27.555Z,23.53
2023-04-07T01:16:27.675Z,23.53
2023-04-07T01:17:27.770Z,23.54
2023-04-07T01:18:27.802Z,23.58
2023-04-07T01:19:27.912Z,23.57
2023-04-07T01:20:27.978Z,23.55
2023-04-07T01:21:28.046Z,23.55
2023-04-07T01:22:28.138Z,23.58
2023-04-07T01:23:28.230Z,23.59
2023-04-07T01:24:28.300Z,23.56
2023-04-07T01:25:28.389Z,23.54
2023-04-07T01:26:28.483Z,23.55
2023-04-07T01:27:28.540Z,23.58
2023-04-07T01:28:28.627Z,23.54
2023-04-07T01:29:28.708Z,23.55
2023-04-07T01:30:28.797Z,23.56
2023-04-07T01:31:28.878Z,23.56
2023-04-07T01:32:28.970Z,23.57
2023-04-07T01:33:29.030Z,23.58
2023-04-07T01:34:29.113Z,23.59
2023-04-07T01:35:29.198Z,23.58
2023-04-07T01:36:29.278Z,23.55
2023-04-07T01:37:29.361Z,23.56
2023-04-07T01:38:29.449Z,23.55
2023-04-07T01:39:29.539Z,23.50
2023-04-07T01:40:29.622Z,23.57
2023-04-07T01:41:29.675Z,23.59
2023-04-07T01:42:29.769Z,23.60
2023-04-07T01:43:29.834Z,23.61
2023-04-07T01:44:29.919Z,23.63
2023-04-07T01:45:30.008Z,23.64
2023-04-07T01:46:30.077Z,23.59
2023-04-07T01:47:30.204Z,23.55
2023-04-07T01:48:30.252Z,23.62
2023-04-07T01:49:30.324Z,23.61
2023-04-07T01:50:30.407Z,23.63
2023-04-07T01:51:30.477Z,23.58
2023-04-07T01:52:30.562Z,23.59
2023-04-07T01:53:30.648Z,23.61
2023-04-07T01:54:30.718Z,23.59
2023-04-07T01:55:30.810Z,23.54
2023-04-07T01:56:30.880Z,23.56
2023-04-07T01:57:30.965Z,23.53
2023-04-07T01:58:31.033Z,23.58
2023-04-07T01:59:31.080Z,23.61
2023-04-07T02:00:31.171Z,23.61
2023-04-07T02:01:31.306Z,23.63
2023-04-07T02:02:31.508Z,23.56
2023-04-07T02:03:31.429Z,23.63
2023-04-07T02:04:31.383Z,23.63
2023-04-07T02:05:31.375Z,23.59
2023-04-07T02:06:31.390Z,23.60
2023-04-07T02:07:31.395Z,23.60
2023-04-07T02:08:32.366Z,23.60
2023-04-07T02:09:31.408Z,23.62
2023-04-07T02:10:31.429Z,23.64
2023-04-07T02:11:31.448Z,23.67
2023-04-07T02:12:31.513Z,23.66
2023-04-07T02:13:31.594Z,23.64
2023-04-07T02:14:31.668Z,23.61
2023-04-07T02:15:31.672Z,23.63
2023-04-07T02:16:31.749Z,23.57
2023-04-07T02:17:31.739Z,23.59
2023-04-07T02:18:31.724Z,23.59
2023-04-07T02:19:31.717Z,23.64
2023-04-07T02:20:31.742Z,23.65
2023-04-07T02:21:31.748Z,23.66
2023-04-07T02:22:31.759Z,23.59
2023-04-07T02:23:31.802Z,23.60
2023-04-07T02:24:31.859Z,23.63
2023-04-07T02:25:31.933Z,23.69
2023-04-07T02:26:33.718Z,23.60
2023-04-07T02:27:32.035Z,23.60
2023-04-07T02:28:32.038Z,23.60
2023-04-07T02:29:32.052Z,23.66
2023-04-07T02:30:32.066Z,23.66
2023-04-07T02:31:32.121Z,23.65
2023-04-07T02:32:32.109Z,23.62
2023-04-07T02:33:32.096Z,23.63
2023-04-07T02:34:32.120Z,23.62
2023-04-07T02:35:32.114Z,23.62
2023-04-07T02:36:32.142Z,23.63
2023-04-07T02:37:32.154Z,23.62
2023-04-07T02:38:32.161Z,23.66
2023-04-07T02:39:32.172Z,23.68
2023-04-07T02:40:32.193Z,23.64
2023-04-07T02:41:32.229Z,23.59
2023-04-07T02:42:32.237Z,23.67
2023-04-07T02:43:32.238Z,23.65
2023-04-07T02:44:32.270Z,23.66
2023-04-07T02:45:32.272Z,23.63
2023-04-07T02:46:32.353Z,23.66
2023-04-07T02:47:32.380Z,23.54
2023-04-07T02:48:32.449Z,23.61
2023-04-07T02:49:32.517Z,23.68
2023-04-07T02:50:32.622Z,23.65
2023-04-07T02:51:32.715Z,23.63
2023-04-07T02:52:32.759Z,23.66
2023-04-07T02:53:32.829Z,23.59
2023-04-07T02:54:32.921Z,23.62
2023-04-07T02:55:32.992Z,23.67
2023-04-07T02:56:33.124Z,23.67
2023-04-07T02:57:33.169Z,23.68
2023-04-07T02:58:33.242Z,23.64
2023-04-07T02:59:33.313Z,23.59
2023-04-07T03:00:33.412Z,23.64
2023-04-07T03:01:33.609Z,23.62
2023-04-07T03:02:33.709Z,23.65
2023-04-07T03:03:33.721Z,23.68
2023-04-07T03:04:33.729Z,23.66
2023-04-07T03:05:33.823Z,23.67
2023-04-07T03:06:33.901Z,23.60
2023-04-07T03:07:33.994Z,23.65
2023-04-07T03:08:34.076Z,23.68
2023-04-07T03:09:34.175Z,23.65
2023-04-07T03:10:34.254Z,23.67
2023-04-07T03:11:34.354Z,23.66
2023-04-07T03:12:34.427Z,23.66
2023-04-07T03:13:34.516Z,23.67
2023-04-07T03:14:34.603Z,23.65
2023-04-07T03:15:34.706Z,23.67
2023-04-07T03:16:34.809Z,23.65
2023-04-07T03:17:34.938Z,23.70
2023-04-07T03:18:34.969Z,23.71
2023-04-07T03:19:35.045Z,23.67
2023-04-07T03:20:35.132Z,23.63
2023-04-07T03:21:35.214Z,23.66
2023-04-07T03:22:35.309Z,23.69
2023-04-07T03:23:35.368Z,23.64
2023-04-07T03:24:35.459Z,23.65
2023-04-07T03:25:35.492Z,23.65
2023-04-07T03:26:35.507Z,23.60
2023-04-07T03:27:35.514Z,23.67
2023-04-07T03:28:35.556Z,23.69
2023-04-07T03:29:35.565Z,23.70
2023-04-07T03:30:35.599Z,23.62
2023-04-07T03:31:35.590Z,23.71
2023-04-07T03:32:35.654Z,23.67
2023-04-07T03:33:35.630Z,23.69
2023-04-07T03:34:35.667Z,23.61
2023-04-07T03:35:35.725Z,23.66
2023-04-07T03:36:35.699Z,23.62
2023-04-07T03:37:35.699Z,23.67
2023-04-07T03:38:35.717Z,23.70
2023-04-07T03:39:35.789Z,23.62
2023-04-07T03:40:35.888Z,23.61
2023-04-07T03:41:35.970Z,23.65
2023-04-07T03:42:36.061Z,23.67
2023-04-07T03:43:36.134Z,23.65
2023-04-07T03:44:36.222Z,23.69
2023-04-07T03:45:36.309Z,23.70
2023-04-07T03:46:36.433Z,23.71
2023-04-07T03:47:36.515Z,23.59
2023-04-07T03:48:36.571Z,23.62
2023-04-07T03:49:36.665Z,23.46
2023-04-07T03:50:36.738Z,23.41
2023-04-07T03:51:36.829Z,23.55
2023-04-07T03:52:36.898Z,23.51
2023-04-07T03:53:36.986Z,23.63
2023-04-07T03:54:37.086Z,23.59
2023-04-07T03:55:37.180Z,23.37
2023-04-07T03:56:37.242Z,23.42
2023-04-07T03:57:37.277Z,23.53
2023-04-07T03:58:37.333Z,23.61
2023-04-07T03:59:37.429Z,23.68
2023-04-07T04:00:37.497Z,23.58
2023-04-07T04:01:37.562Z,23.41
2023-04-07T04:02:37.619Z,23.51
2023-04-07T04:03:37.823Z,23.58
2023-04-07T04:04:37.781Z,23.64
2023-04-07T04:05:37.801Z,23.48
2023-04-07T04:06:37.836Z,23.37
2023-04-07T04:07:37.856Z,23.42
2023-04-07T04:08:37.904Z,23.43
2023-04-07T04:09:37.959Z,23.59
2023-04-07T04:10:38.017Z,23.63
2023-04-07T04:11:38.093Z,23.39
2023-04-07T04:12:38.119Z,23.33
2023-04-07T04:13:38.184Z,23.44
2023-04-07T04:14:38.269Z,23.45
2023-04-07T04:15:38.360Z,23.51
2023-04-07T04:16:38.429Z,23.51
2023-04-07T04:17:38.476Z,23.41
2023-04-07T04:18:38.476Z,23.33
2023-04-07T04:19:38.504Z,23.38
2023-04-07T04:20:38.531Z,23.47
2023-04-07T04:21:38.578Z,23.52
2023-04-07T04:22:38.618Z,23.36
2023-04-07T04:23:38.654Z,23.35
2023-04-07T04:24:38.687Z,23.34
2023-04-07T04:25:38.687Z,23.26
2023-04-07T04:26:38.723Z,23.34
2023-04-07T04:27:38.747Z,23.51
2023-04-07T04:28:39.115Z,23.36
2023-04-07T04:29:38.795Z,23.24
2023-04-07T04:30:38.830Z,23.31
2023-04-07T04:31:38.875Z,23.29
2023-04-07T04:32:38.978Z,23.40
2023-04-07T04:33:38.961Z,23.51
2023-04-07T04:34:38.975Z,23.38
2023-04-07T04:35:39.012Z,23.21
2023-04-07T04:36:39.067Z,23.24
2023-04-07T04:37:39.115Z,23.30
2023-04-07T04:38:39.158Z,23.33
2023-04-07T04:39:39.193Z,23.45
2023-04-07T04:40:39.226Z,23.36
2023-04-07T04:41:39.264Z,23.24
2023-04-07T04:42:39.290Z,23.35
2023-04-07T04:43:39.350Z,23.41
2023-04-07T04:44:39.343Z,23.41
2023-04-07T04:45:39.383Z,23.41
2023-04-07T04:46:39.434Z,23.28
2023-04-07T04:47:39.494Z,23.23
2023-04-07T04:48:39.448Z,23.19
2023-04-07T04:49:39.468Z,23.24
2023-04-07T04:50:39.501Z,23.38
2023-04-07T04:51:39.517Z,23.24
2023-04-07T04:52:39.569Z,23.14
2023-04-07T04:53:39.603Z,23.19
2023-04-07T04:54:39.616Z,23.24
2023-04-07T04:55:39.651Z,23.32
2023-04-07T04:56:39.664Z,23.41
2023-04-07T04:57:39.697Z,23.31
2023-04-07T04:58:39.707Z,23.10
2023-04-07T04:59:39.738Z,23.17
2023-04-07T05:00:39.778Z,23.25
2023-04-07T05:01:39.849Z,23.33
2023-04-07T05:02:39.887Z,23.26
2023-04-07T05:03:39.959Z,23.17
2023-04-07T05:04:40.032Z,23.14
2023-04-07T05:05:39.887Z,23.25
2023-04-07T05:06:39.927Z,23.30
2023-04-07T05:07:39.959Z,23.36
2023-04-07T05:08:39.998Z,23.28
2023-04-07T05:09:40.008Z,23.08
2023-04-07T05:10:40.064Z,23.08
2023-04-07T05:11:40.061Z,23.18
2023-04-07T05:12:40.071Z,23.26
2023-04-07T05:13:40.094Z,23.31
2023-04-07T05:14:40.131Z,23.10
2023-04-07T05:15:40.172Z,23.01
2023-04-07T05:16:40.304Z,23.19
2023-04-07T05:17:40.306Z,23.16
2023-04-07T05:18:40.242Z,23.10
2023-04-07T05:19:40.286Z,23.25
2023-04-07T05:20:40.304Z,23.05
2023-04-07T05:21:40.359Z,23.01
2023-04-07T05:22:40.415Z,23.10
2023-04-07T05:23:40.392Z,23.18
2023-04-07T05:24:40.422Z,23.24
2023-04-07T05:25:40.451Z,23.22
2023-04-07T05:26:40.477Z,23.12
2023-04-07T05:27:40.510Z,22.97
2023-04-07T05:28:40.586Z,23.07
2023-04-07T05:29:40.579Z,23.14
2023-04-07T05:30:40.583Z,23.19
2023-04-07T05:31:40.674Z,23.22
2023-04-07T05:32:40.717Z,23.08
2023-04-07T05:33:40.683Z,23.04
2023-04-07T05:34:40.721Z,23.06
2023-04-07T05:35:40.792Z,23.14
2023-04-07T05:36:40.800Z,23.21
2023-04-07T05:37:40.835Z,23.08
2023-04-07T05:38:40.863Z,23.07
2023-04-07T05:39:40.893Z,22.99
2023-04-07T05:40:40.941Z,22.98
2023-04-07T05:41:40.938Z,23.08
2023-04-07T05:42:40.967Z,23.22
2023-04-07T05:43:41.009Z,23.16
2023-04-07T05:44:41.018Z,23.07
2023-04-07T05:45:41.081Z,22.98
2023-04-07T05:46:41.078Z,23.15
2023-04-07T05:47:41.200Z,23.14
2023-04-07T05:48:41.130Z,23.17
2023-04-07T05:49:41.151Z,23.11
2023-04-07T05:50:41.159Z,23.02
2023-04-07T05:51:41.192Z,22.98
2023-04-07T05:52:41.222Z,23.06
2023-04-07T05:53:41.264Z,23.15
2023-04-07T05:54:41.282Z,23.01
2023-04-07T05:55:41.322Z,23.00
2023-04-07T05:56:41.341Z,22.98
2023-04-07T05:57:41.339Z,23.05
2023-04-07T05:58:41.400Z,23.12
2023-04-07T05:59:41.408Z,23.14
2023-04-07T06:00:41.415Z,23.11
2023-04-07T06:01:41.491Z,22.99
2023-04-07T06:02:41.591Z,23.03
2023-04-07T06:03:41.593Z,23.07
2023-04-07T06:04:41.508Z,23.10
2023-04-07T06:05:41.600Z,23.15
2023-04-07T06:06:41.556Z,23.02
2023-04-07T06:07:41.569Z,22.96
2023-04-07T06:08:41.617Z,23.05
2023-04-07T06:09:41.635Z,23.00
2023-04-07T06:10:41.678Z,23.07
2023-04-07T06:11:41.704Z,23.08
2023-04-07T06:12:41.745Z,22.94
2023-04-07T06:13:41.770Z,22.94
2023-04-07T06:14:41.788Z,23.00
2023-04-07T06:15:41.807Z,22.95
2023-04-07T06:16:41.829Z,23.09
2023-04-07T06:17:41.861Z,23.01
2023-04-07T06:18:41.855Z,22.93
2023-04-07T06:19:41.877Z,22.96
2023-04-07T06:20:41.941Z,22.99
2023-04-07T06:21:41.921Z,23.06
2023-04-07T06:22:41.974Z,23.07
2023-04-07T06:23:41.998Z,22.99
2023-04-07T06:24:42.008Z,22.87
2023-04-07T06:25:42.080Z,22.87
2023-04-07T06:26:42.036Z,23.03
2023-04-07T06:27:42.044Z,23.02
2023-04-07T06:28:42.083Z,23.13
2023-04-07T06:29:42.109Z,23.00
2023-04-07T06:30:42.143Z,22.86
2023-04-07T06:31:42.148Z,22.86
2023-04-07T06:32:42.285Z,22.99
2023-04-07T06:33:42.200Z,23.03
2023-04-07T06:34:42.225Z,23.08
2023-04-07T06:35:42.220Z,22.93
2023-04-07T06:36:42.296Z,22.85
2023-04-07T06:37:42.295Z,22.96
2023-04-07T06:38:42.304Z,22.99
2023-04-07T06:39:42.334Z,23.08
2023-04-07T06:40:42.333Z,22.85
2023-04-07T06:41:42.375Z,22.87
2023-04-07T06:42:42.375Z,22.87
2023-04-07T06:43:42.422Z,22.94
2023-04-07T06:44:42.439Z,23.00
2023-04-07T06:45:42.477Z,23.06
2023-04-07T06:46:42.553Z,22.91
2023-04-07T06:47:42.557Z,22.76
2023-04-07T06:48:42.531Z,22.92
2023-04-07T06:49:42.526Z,22.92
2023-04-07T06:50:42.550Z,23.00
2023-04-07T06:51:42.611Z,22.96
2023-04-07T06:52:42.591Z,22.94
2023-04-07T06:53:42.658Z,22.76
2023-04-07T06:54:42.630Z,22.84
2023-04-07T06:55:42.663Z,22.92
2023-04-07T06:56:42.668Z,22.96
2023-04-07T06:57:42.702Z,22.84
2023-04-07T06:58:42.730Z,22.82
2023-04-07T06:59:42.740Z,22.78
2023-04-07T07:00:42.774Z,22.87
2023-04-07T07:01:42.874Z,22.92
2023-04-07T07:02:42.933Z,22.97
2023-04-07T07:03:42.962Z,22.82
2023-04-07T07:04:42.848Z,22.69
2023-04-07T07:05:42.852Z,22.85
2023-04-07T07:06:42.887Z,22.89
2023-04-07T07:07:42.907Z,22.92
2023-04-07T07:08:42.922Z,22.83
2023-04-07T07:09:42.962Z,22.79
2023-04-07T07:10:42.956Z,22.84
2023-04-07T07:11:42.995Z,22.81
2023-04-07T07:12:43.003Z,22.92
2023-04-07T07:13:43.034Z,22.79
2023-04-07T07:14:43.068Z,22.72
2023-04-07T07:15:43.214Z,22.76
2023-04-07T07:16:43.307Z,22.83
2023-04-07T07:17:43.133Z,22.86
2023-04-07T07:18:43.138Z,22.75
2023-04-07T07:19:43.153Z,22.68
2023-04-07T07:20:43.179Z,22.57
2023-04-07T07:21:43.221Z,22.68
2023-04-07T07:22:43.265Z,22.77
2023-04-07T07:23:43.253Z,22.85
2023-04-07T07:24:43.290Z,22.64
2023-04-07T07:25:43.290Z,22.60
2023-04-07T07:26:44.577Z,22.68
2023-04-07T07:27:43.328Z,22.74
2023-04-07T07:28:43.363Z,22.82
2023-04-07T07:29:43.375Z,22.65
2023-04-07T07:30:43.440Z,22.58
2023-04-07T07:31:43.474Z,22.64
2023-04-07T07:32:43.500Z,22.71
2023-04-07T07:33:43.461Z,22.76
2023-04-07T07:34:43.477Z,22.67
2023-04-07T07:35:43.539Z,22.56
2023-04-07T07:36:43.512Z,22.49
2023-04-07T07:37:43.534Z,22.66
2023-04-07T07:38:43.615Z,22.71
2023-04-07T07:39:43.567Z,22.68
2023-04-07T07:40:43.601Z,22.59
2023-04-07T07:41:43.622Z,22.46
2023-04-07T07:42:43.660Z,22.56
2023-04-07T07:43:43.718Z,22.62
2023-04-07T07:44:43.722Z,22.63
2023-04-07T07:45:43.766Z,22.49
2023-04-07T07:46:43.939Z,22.37
2023-04-07T07:47:43.962Z,22.49
2023-04-07T07:48:43.900Z,22.48
2023-04-07T07:49:43.945Z,22.54
2023-04-07T07:50:44.023Z,22.50
2023-04-07T07:51:44.174Z,22.41
2023-04-07T07:52:44.442Z,22.43
2023-04-07T07:53:44.226Z,22.50
2023-04-07T07:54:44.295Z,22.45
2023-04-07T07:55:44.390Z,22.48
2023-04-07T07:56:44.436Z,22.50
2023-04-07T07:57:44.507Z,22.50
2023-04-07T07:58:44.616Z,22.47
2023-04-07T07:59:44.745Z,22.54
2023-04-07T08:00:44.701Z,22.46
2023-04-07T08:01:44.834Z,22.53
2023-04-07T08:02:44.996Z,22.50
2023-04-07T08:03:45.098Z,22.49
2023-04-07T08:04:45.079Z,22.55
2023-04-07T08:05:45.699Z,22.55
2023-04-07T08:06:45.164Z,22.54
2023-04-07T08:07:45.241Z,22.44
2023-04-07T08:08:45.340Z,22.44
2023-04-07T08:09:45.404Z,22.43
2023-04-07T08:10:45.484Z,22.39
2023-04-07T08:11:45.649Z,22.43
2023-04-07T08:12:45.758Z,22.46
2023-04-07T08:13:46.073Z,22.51
2023-04-07T08:14:45.889Z,22.43
2023-04-07T08:15:46.073Z,22.51
2023-04-07T08:16:45.961Z,22.50
2023-04-07T08:17:46.131Z,22.52
2023-04-07T08:18:46.327Z,22.48
2023-04-07T08:19:46.166Z,22.52
2023-04-07T08:20:46.337Z,22.49
2023-04-07T08:21:46.315Z,22.47
2023-04-07T08:22:46.412Z,22.38
2023-04-07T08:23:46.680Z,22.40
2023-04-07T08:24:46.562Z,22.39
2023-04-07T08:25:46.639Z,22.41
2023-04-07T08:26:46.700Z,22.37
2023-04-07T08:27:46.760Z,22.37
2023-04-07T08:28:46.838Z,22.30
2023-04-07T08:29:46.908Z,22.24
2023-04-07T08:30:47.071Z,22.24
2023-04-07T08:31:47.060Z,22.19
2023-04-07T08:32:47.171Z,22.17
2023-04-07T08:33:47.499Z,22.16
2023-04-07T08:34:47.261Z,22.12
2023-04-07T08:35:47.355Z,22.15
2023-04-07T08:36:47.409Z,22.16
2023-04-07T08:37:47.562Z,22.20
2023-04-07T08:38:47.494Z,22.22
2023-04-07T08:39:47.510Z,22.22
2023-04-07T08:40:47.547Z,22.28
2023-04-07T08:41:47.498Z,22.28
2023-04-07T08:42:47.512Z,22.26
2023-04-07T08:43:47.653Z,22.24
2023-04-07T08:44:47.539Z,22.25
2023-04-07T08:45:47.531Z,22.24
2023-04-07T08:46:47.556Z,22.22
2023-04-07T08:47:47.634Z,22.18
2023-04-07T08:48:47.617Z,22.18
2023-04-07T08:49:47.695Z,22.13
2023-04-07T08:50:47.822Z,22.05
2023-04-07T08:51:47.825Z,22.02
2023-04-07T08:52:47.858Z,21.94
2023-04-07T08:53:48.059Z,21.89
2023-04-07T08:54:48.043Z,21.84
2023-04-07T08:55:48.037Z,21.78
2023-04-07T08:56:48.103Z,21.75
2023-04-07T08:57:48.153Z,21.65
2023-04-07T08:58:48.248Z,21.58
2023-04-07T08:59:48.281Z,21.57
2023-04-07T09:00:48.302Z,21.52
2023-04-07T09:01:48.380Z,21.52
2023-04-07T09:02:48.460Z,21.42
2023-04-07T09:03:49.028Z,21.48
2023-04-07T09:04:48.538Z,21.49
2023-04-07T09:05:48.551Z,21.53
2023-04-07T09:06:48.608Z,21.48
2023-04-07T09:07:48.641Z,21.47
2023-04-07T09:08:48.710Z,21.49
2023-04-07T09:09:48.920Z,21.45
2023-04-07T09:10:48.800Z,21.43
2023-04-07T09:11:48.812Z,21.42
2023-04-07T09:12:48.839Z,21.50
2023-04-07T09:13:49.135Z,21.57
2023-04-07T09:14:48.932Z,21.64
2023-04-07T09:15:49.022Z,21.61
2023-04-07T09:16:49.074Z,21.66
2023-04-07T09:17:49.131Z,21.62
2023-04-07T09:18:49.122Z,21.63
2023-04-07T09:19:49.164Z,21.60
2023-04-07T09:20:49.233Z,21.62
2023-04-07T09:21:49.200Z,21.62
2023-04-07T09:22:49.227Z,21.62
2023-04-07T09:23:49.537Z,21.65
2023-04-07T09:24:49.209Z,21.62
2023-04-07T09:25:49.202Z,21.56
2023-04-07T09:26:49.203Z,21.58
2023-04-07T09:27:49.217Z,21.61
2023-04-07T09:28:49.216Z,21.61
2023-04-07T09:29:49.222Z,21.63
2023-04-07T09:30:49.215Z,21.65
2023-04-07T09:31:49.300Z,21.62
2023-04-07T09:32:49.267Z,21.61
2023-04-07T09:33:49.432Z,21.55
2023-04-07T09:34:49.218Z,21.60
2023-04-07T09:35:49.240Z,21.66
2023-04-07T09:36:49.221Z,21.68
2023-04-07T09:37:49.230Z,21.73
2023-04-07T09:38:49.234Z,21.68
2023-04-07T09:39:49.201Z,21.71
2023-04-07T09:40:49.204Z,21.69
2023-04-07T09:41:49.207Z,21.70
2023-04-07T09:42:49.196Z,21.69
2023-04-07T09:43:49.451Z,21.71
2023-04-07T09:44:49.207Z,21.69
2023-04-07T09:45:49.251Z,21.75
2023-04-07T09:46:49.237Z,21.69
2023-04-07T09:47:49.278Z,21.70
2023-04-07T09:48:49.286Z,21.73
2023-04-07T09:49:49.317Z,21.72
2023-04-07T09:50:49.427Z,21.74
2023-04-07T09:51:49.346Z,21.76
2023-04-07T09:52:49.390Z,21.77
2023-04-07T09:53:49.697Z,21.78
2023-04-07T09:54:49.416Z,21.74
2023-04-07T09:55:49.424Z,21.74
2023-04-07T09:56:51.068Z,21.76
2023-04-07T09:57:49.463Z,21.62
2023-04-07T09:58:49.483Z,21.75
2023-04-07T09:59:49.495Z,21.72
2023-04-07T10:00:49.502Z,21.76
2023-04-07T10:01:49.642Z,21.76
2023-04-07T10:02:49.579Z,21.77
2023-04-07T10:03:49.728Z,21.77
2023-04-07T10:04:49.547Z,21.76
2023-04-07T10:05:49.588Z,21.75
2023-04-07T10:06:49.543Z,21.73
2023-04-07T10:07:49.547Z,21.75
2023-04-07T10:08:49.818Z,21.76
2023-04-07T10:09:49.566Z,21.73
2023-04-07T10:10:49.563Z,21.75
2023-04-07T10:11:49.555Z,21.72
2023-04-07T10:12:49.563Z,21.72
2023-04-07T10:13:49.949Z,21.73
2023-04-07T10:14:49.569Z,21.73
2023-04-07T10:15:49.548Z,21.69
2023-04-07T10:16:49.593Z,21.68
2023-04-07T10:17:49.592Z,21.70
2023-04-07T10:18:49.547Z,21.69
2023-04-07T10:19:49.501Z,21.71
2023-04-07T10:20:49.504Z,21.71
2023-04-07T10:21:49.475Z,21.66
2023-04-07T10:22:49.477Z,21.68
2023-04-07T10:23:50.042Z,21.67
2023-04-07T10:24:49.477Z,21.67
2023-04-07T10:25:49.467Z,21.64
2023-04-07T10:26:49.468Z,21.68
2023-04-07T10:27:49.453Z,21.67
2023-04-07T10:28:49.452Z,21.72
2023-04-07T10:29:49.500Z,21.72
2023-04-07T10:30:49.468Z,21.72
2023-04-07T10:31:49.445Z,21.77
2023-04-07T10:32:49.485Z,21.78
2023-04-07T10:33:49.616Z,21.81
2023-04-07T10:34:49.433Z,21.85
2023-04-07T10:35:49.463Z,21.86
2023-04-07T10:36:49.437Z,21.85
2023-04-07T10:37:49.424Z,21.90
2023-04-07T10:38:49.392Z,21.91
2023-04-07T10:39:49.409Z,21.95
2023-04-07T10:40:49.390Z,21.90
2023-04-07T10:41:49.367Z,21.86
2023-04-07T10:42:49.380Z,21.87
2023-04-07T10:43:49.806Z,21.87
2023-04-07T10:44:49.364Z,21.92
2023-04-07T10:45:49.397Z,21.94
2023-04-07T10:46:49.377Z,21.89
2023-04-07T10:47:49.340Z,21.93
2023-04-07T10:48:49.319Z,21.96
2023-04-07T10:49:49.315Z,21.88
2023-04-07T10:50:49.309Z,21.96
2023-04-07T10:51:49.302Z,21.96
2023-04-07T10:52:49.292Z,21.97
2023-04-07T10:53:49.403Z,22.01
2023-04-07T10:54:49.280Z,22.01
2023-04-07T10:55:49.282Z,21.99
2023-04-07T10:56:49.288Z,21.97
2023-04-07T10:57:49.293Z,22.01
2023-04-07T10:58:49.270Z,21.93
2023-04-07T10:59:49.294Z,22.05
2023-04-07T11:00:49.337Z,22.00
2023-04-07T11:01:49.399Z,22.06
2023-04-07T11:02:49.573Z,22.03
2023-04-07T11:03:49.688Z,22.01
2023-04-07T11:04:49.514Z,22.03
2023-04-07T11:05:49.338Z,22.04
2023-04-07T11:06:49.349Z,21.96
2023-04-07T11:07:49.343Z,22.06
2023-04-07T11:08:49.733Z,21.99
2023-04-07T11:09:49.330Z,22.00
2023-04-07T11:10:49.381Z,22.04
2023-04-07T11:11:49.349Z,22.10
2023-04-07T11:12:49.356Z,22.23
2023-04-07T11:13:49.777Z,22.23
2023-04-07T11:14:49.352Z,22.24
2023-04-07T11:15:49.376Z,22.27
2023-04-07T11:16:49.340Z,22.24
2023-04-07T11:17:49.413Z,22.23
2023-04-07T11:18:49.353Z,22.26
2023-04-07T11:19:49.338Z,22.22
2023-04-07T11:20:49.353Z,22.28
2023-04-07T11:21:49.336Z,22.25
2023-04-07T11:22:49.346Z,22.18
2023-04-07T11:23:49.579Z,22.25
2023-04-07T11:24:49.369Z,22.23
2023-04-07T11:25:49.403Z,22.22
2023-04-07T11:26:50.616Z,22.11
2023-04-07T11:27:49.480Z,22.01
2023-04-07T11:28:49.506Z,21.97
2023-04-07T11:29:49.534Z,21.91
2023-04-07T11:30:49.573Z,21.98
2023-04-07T11:31:49.657Z,21.98
2023-04-07T11:32:49.728Z,21.90
2023-04-07T11:33:49.873Z,21.93
2023-04-07T11:34:49.724Z,21.97
2023-04-07T11:35:49.774Z,21.83
2023-04-07T11:36:49.820Z,21.91
2023-04-07T11:37:49.816Z,21.87
2023-04-07T11:38:49.836Z,21.83
2023-04-07T11:39:49.895Z,21.81
2023-04-07T11:40:49.902Z,21.81
2023-04-07T11:41:49.936Z,21.79
2023-04-07T11:42:49.934Z,21.76
2023-04-07T11:43:50.084Z,21.81
2023-04-07T11:44:49.976Z,21.80
2023-04-07T11:45:49.974Z,21.83
2023-04-07T11:46:50.106Z,21.89
2023-04-07T11:47:50.026Z,21.82
2023-04-07T11:48:50.049Z,21.80
2023-04-07T11:49:50.055Z,21.82
2023-04-07T11:50:50.060Z,21.74
2023-04-07T11:51:50.113Z,21.83
2023-04-07T11:52:50.129Z,21.85
2023-04-07T11:53:50.377Z,21.82
2023-04-07T11:54:50.139Z,21.74
2023-04-07T11:55:50.209Z,21.86
2023-04-07T11:56:50.201Z,21.80
2023-04-07T11:57:50.207Z,21.89
2023-04-07T11:58:50.329Z,21.85
2023-04-07T11:59:50.280Z,21.97
2023-04-07T12:00:50.296Z,21.89
2023-04-07T12:01:50.410Z,21.95
2023-04-07T12:02:50.538Z,21.97
2023-04-07T12:03:50.487Z,21.99
2023-04-07T12:04:50.424Z,22.02
2023-04-07T12:05:50.382Z,21.95
2023-04-07T12:06:50.416Z,21.88
2023-04-07T12:07:50.417Z,21.91
2023-04-07T12:08:50.450Z,21.88
2023-04-07T12:09:50.460Z,21.91
2023-04-07T12:10:50.494Z,21.85
2023-04-07T12:11:50.526Z,22.00
2023-04-07T12:12:50.528Z,22.01
2023-04-07T12:13:50.823Z,22.03
2023-04-07T12:14:50.571Z,21.94
2023-04-07T12:15:50.601Z,22.02
2023-04-07T12:16:50.770Z,21.94
2023-04-07T12:17:50.683Z,22.00
2023-04-07T12:18:50.669Z,22.04
2023-04-07T12:19:50.689Z,21.93
2023-04-07T12:20:50.720Z,22.00
2023-04-07T12:21:50.717Z,21.94
2023-04-07T12:22:50.734Z,21.93
2023-04-07T12:23:51.026Z,21.88
2023-04-07T12:24:50.800Z,22.00
2023-04-07T12:25:50.803Z,21.97
2023-04-07T12:26:50.827Z,22.04
2023-04-07T12:27:50.862Z,21.87
2023-04-07T12:28:50.863Z,21.86
2023-04-07T12:29:50.894Z,21.97
2023-04-07T12:30:50.938Z,21.97
2023-04-07T12:31:51.478Z,22.04
2023-04-07T12:32:51.021Z,21.96
2023-04-07T12:33:51.171Z,21.97
2023-04-07T12:34:50.982Z,22.00
2023-04-07T12:35:51.009Z,22.04
2023-04-07T12:36:51.009Z,22.01
2023-04-07T12:37:51.007Z,21.88
2023-04-07T12:38:51.011Z,21.96
2023-04-07T12:39:51.027Z,22.07
2023-04-07T12:40:51.013Z,22.06
2023-04-07T12:41:51.018Z,22.11
2023-04-07T12:42:51.015Z,22.14
2023-04-07T12:43:51.137Z,22.03
2023-04-07T12:44:51.027Z,22.04
2023-04-07T12:45:51.125Z,22.02
2023-04-07T12:46:51.026Z,22.09
2023-04-07T12:47:51.045Z,22.06
2023-04-07T12:48:51.036Z,22.03
2023-04-07T12:49:51.028Z,22.14
2023-04-07T12:50:51.035Z,22.01
2023-04-07T12:51:51.037Z,22.02
2023-04-07T12:52:51.038Z,21.98